Ana Sayfa
METAR-TAF:

METAR-TAF

Havaalanları :

Asheville, Kuzey Carolina, Amerika Birleşik Devletleri

Enlem: 35-25-55N, Boylam: 082-32-15W, yükseklik: 660 m

Güncel hava durumu gözlemi

Rapor saat 23:54 UTC de 52 dakika önce yapıldı.
Sakin rüzgar
Sıcaklık 14°C
Nem 67%
Basınç 1019 hPa
Görüş mesafesi: 16.1 km
Açık gökyüzü

METAR: KAVL 232354Z 00000KT 10SM CLR 14/08 A3008 RMK AO2 SLP178 T01390083 10206 20139 51010

Saat: 20:46 (00:46 UTC)

Tahmin

Rapor saat 23:20 UTC de 1 saat ve 26 dakika önce yapıldı.
Ayın 24'si saat 00 UTC'den ayın 24'si saat 24 UTC'ye kadar geçerli Tahmin
Rüzgar değişken yönden 2 kt
Görüş mesafesi: 10 km
10000 ft yükseklikte az bulutlu
Ayın 24'si saat 1400 UTC'den
Rüzgar güneydan 3 kt
Görüş mesafesi: 10 km
25000 ft yükseklikte az bulutlu
Ayın 24'si saat 1800 UTC'den
Rüzgar güneydan 7 kt
Görüş mesafesi: 10 km
25000 ft yükseklikte parçalı bulutlu

TAF: KAVL 232320Z 2400/2424 VRB02KT P6SM FEW100 FM241400 18003KT P6SM FEW250 FM241800 17007KT P6SM SCT250

4.000'den fazla havaalanı için hava durumu gözlemleri ve tahminleri (METAR ve TAF raporları).

Kullanılabilir istasyonlar harita üzerinde sarı ve kırmızı noktalarla gösterilir.

İstasyonun adını görmek için fareyi noktanın üzerinde gezdirin.

Sonrasında hava gözlem ve tahminlerini görmek için tıklayın.

Haritayı değiştirmek için: yaklaştırmak için siyah artı işaretli yeşil düğmeye ve uzaklaştırmak için de eksi işaretli düğmeye hızla tıklayın; bitişik haritalar için yeşil okları kullanın.


METAR-TAF: